Time;durP1;ratioP1;P1;durP2;ratioP2;P2;SDS_P1;SDS_P2;PMS_P1;PMS_P2;Temp;Humidity;BMP_temperature;BMP_pressure;BME280_temperature;BME280_humidity;BME280_pressure;Samples;Min_cycle;Max_cycle;Signal;HPM_P1;HPM_P2
2022/09/09 00:00:15;;;;;;;2.10;1.10;;;14.40;99.90;;;;;;5114990;28;20292;-70
2022/09/09 00:02:46;;;;;;;1.23;0.90;;;14.50;99.90;;;;;;5098319;28;20534;-70
2022/09/09 00:05:21;;;;;;;2.05;0.75;;;14.50;99.90;;;;;;5112868;27;20232;-70
2022/09/09 00:07:51;;;;;;;1.50;1.03;;;14.40;99.90;;;;;;5109606;28;20204;-70
2022/09/09 00:10:28;;;;;;;4.50;1.37;;;14.40;99.90;;;;;;5112573;27;20197;-70
2022/09/09 00:13:06;;;;;;;1.87;0.80;;;14.40;99.90;;;;;;5110276;27;20219;-70
2022/09/09 00:15:39;;;;;;;1.47;0.83;;;14.40;99.90;;;;;;5132254;27;20239;-70
2022/09/09 00:18:16;;;;;;;2.05;1.10;;;14.40;99.90;;;;;;5108270;27;20225;-71
2022/09/09 00:20:51;;;;;;;3.17;1.00;;;14.30;99.90;;;;;;5105478;27;20252;-70
2022/09/09 00:23:25;;;;;;;3.80;1.40;;;14.10;99.90;;;;;;5097691;28;20197;-70
2022/09/09 00:26:00;;;;;;;3.60;1.50;;;14.20;99.90;;;;;;5110026;27;20640;-70
2022/09/09 00:28:30;;;;;;;2.63;1.10;;;14.10;99.90;;;;;;5122984;27;20250;-70
2022/09/09 00:31:02;;;;;;;1.60;1.47;;;14.10;99.90;;;;;;5112964;27;20201;-71
2022/09/09 00:33:32;;;;;;;2.60;1.17;;;14.10;99.90;;;;;;5116488;27;20558;-70
2022/09/09 00:36:00;;;;;;;2.00;1.17;;;14.10;99.90;;;;;;5102528;27;20636;-70
2022/09/09 00:38:34;;;;;;;1.83;1.30;;;14.10;99.90;;;;;;5123978;27;20631;-70
2022/09/09 00:41:08;;;;;;;1.27;1.07;;;14.00;99.90;;;;;;5123291;27;20550;-70
2022/09/09 00:43:40;;;;;;;1.53;1.13;;;13.90;99.90;;;;;;5118617;27;20209;-70
2022/09/09 00:46:30;;;;;;;2.20;1.10;;;14.00;99.90;;;;;;5120326;27;20213;-70
2022/09/09 00:49:05;;;;;;;1.00;1.00;;;14.00;99.90;;;;;;5092023;27;20197;-70
2022/09/09 00:51:46;;;;;;;1.47;1.17;;;13.90;99.90;;;;;;5117002;27;20243;-70
2022/09/09 00:54:26;;;;;;;1.70;1.17;;;13.90;99.90;;;;;;5131317;27;20196;-70
2022/09/09 00:57:04;;;;;;;4.10;1.40;;;13.90;99.90;;;;;;5092844;28;20235;-70
2022/09/09 00:59:45;;;;;;;1.67;1.53;;;13.90;99.90;;;;;;5074999;28;20205;-70
2022/09/09 01:02:23;;;;;;;4.10;1.77;;;13.80;99.90;;;;;;5108666;27;20312;-70
2022/09/09 01:04:49;;;;;;;3.23;2.93;;;13.90;99.90;;;;;;5088366;28;20193;-70
2022/09/09 01:07:18;;;;;;;6.33;5.40;;;13.90;99.90;;;;;;5117297;27;20309;-70
2022/09/09 01:10:07;;;;;;;7.00;6.30;;;13.80;99.90;;;;;;5114765;27;20736;-70
2022/09/09 01:12:43;;;;;;;7.43;6.33;;;13.90;99.90;;;;;;5107252;27;20236;-70
2022/09/09 01:15:16;;;;;;;5.03;4.53;;;13.70;99.90;;;;;;5095558;28;21115;-70
2022/09/09 01:17:56;;;;;;;4.47;2.37;;;13.70;99.90;;;;;;5111072;27;20718;-70
2022/09/09 01:20:26;;;;;;;3.13;1.67;;;13.80;99.90;;;;;;5119626;27;20224;-71
2022/09/09 01:23:32;;;;;;;1.40;1.30;;;13.80;99.90;;;;;;5118545;27;20312;-70
2022/09/09 01:26:20;;;;;;;1.90;1.80;;;13.80;99.90;;;;;;5022404;28;20222;-71
2022/09/09 01:28:49;;;;;;;4.17;1.57;;;13.80;99.90;;;;;;5023645;28;20286;-71
2022/09/09 01:31:20;;;;;;;3.03;1.27;;;13.70;99.90;;;;;;5076267;28;20209;-71
2022/09/09 01:33:47;;;;;;;3.73;1.10;;;13.80;99.90;;;;;;5093213;28;20683;-71
2022/09/09 01:36:22;;;;;;;3.37;1.60;;;13.80;99.90;;;;;;5105915;27;20317;-71
2022/09/09 01:38:49;;;;;;;3.20;1.70;;;13.70;99.90;;;;;;5128069;27;20631;-71
2022/09/09 01:41:16;;;;;;;4.67;2.30;;;13.60;99.90;;;;;;5115522;27;20767;-71
2022/09/09 01:43:45;;;;;;;8.53;2.77;;;13.50;99.90;;;;;;5131102;27;20662;-71
2022/09/09 01:46:14;;;;;;;3.80;2.50;;;13.50;99.90;;;;;;5131363;27;20241;-71
2022/09/09 01:48:42;;;;;;;4.10;2.47;;;13.50;99.90;;;;;;5127869;27;20276;-71
2022/09/09 01:51:10;;;;;;;5.57;3.33;;;13.50;99.90;;;;;;5113465;27;20638;-71
2022/09/09 01:53:37;;;;;;;4.70;4.13;;;13.60;99.90;;;;;;5128692;27;20325;-71
2022/09/09 01:56:15;;;;;;;5.20;4.72;;;13.60;99.90;;;;;;5097347;28;20313;-71
2022/09/09 01:58:56;;;;;;;5.53;4.70;;;13.50;99.90;;;;;;5105800;27;20234;-71
2022/09/09 02:01:36;;;;;;;5.40;4.90;;;13.50;99.90;;;;;;5100721;27;20659;-71
2022/09/09 02:04:09;;;;;;;4.07;3.47;;;13.50;99.90;;;;;;5118012;27;20201;-71
2022/09/09 02:06:38;;;;;;;4.90;3.20;;;13.50;99.90;;;;;;5116468;27;20204;-71
2022/09/09 02:09:07;;;;;;;4.87;3.10;;;13.50;99.90;;;;;;5122351;27;20256;-71
2022/09/09 02:11:35;;;;;;;4.43;2.30;;;13.50;99.90;;;;;;5124172;27;20291;-71
2022/09/09 02:14:07;;;;;;;3.60;1.97;;;13.60;99.90;;;;;;5122598;27;20608;-71
2022/09/09 02:16:39;;;;;;;4.80;1.73;;;13.60;99.90;;;;;;5126564;27;20470;-71
2022/09/09 02:19:13;;;;;;;3.77;1.83;;;13.60;99.90;;;;;;5105809;28;20240;-71
2022/09/09 02:21:41;;;;;;;1.30;1.20;;;13.60;99.90;;;;;;5087141;28;20220;-71
2022/09/09 02:24:10;;;;;;;3.60;1.60;;;13.60;99.90;;;;;;5120975;27;20220;-71
2022/09/09 02:26:40;;;;;;;2.87;1.40;;;13.60;99.90;;;;;;5103036;27;20209;-71
2022/09/09 02:29:15;;;;;;;1.50;1.40;;;13.60;99.90;;;;;;5125989;27;20613;-71
2022/09/09 02:31:45;;;;;;;2.60;1.57;;;13.60;99.90;;;;;;5100009;27;20295;-71
2022/09/09 02:34:14;;;;;;;2.85;1.08;;;13.50;99.90;;;;;;5117847;27;20284;-71
2022/09/09 02:36:44;;;;;;;4.70;1.90;;;13.40;99.90;;;;;;5122800;27;20719;-71
2022/09/09 02:39:12;;;;;;;2.97;1.60;;;13.50;99.90;;;;;;5118592;27;20193;-71
2022/09/09 02:41:41;;;;;;;2.07;1.60;;;13.60;99.90;;;;;;5097361;28;20755;-71
2022/09/09 02:44:12;;;;;;;1.97;1.63;;;13.40;99.90;;;;;;5127807;27;20279;-71
2022/09/09 02:47:00;;;;;;;1.80;1.70;;;13.40;99.90;;;;;;5114735;27;20201;-71
2022/09/09 02:49:36;;;;;;;3.67;1.80;;;13.40;99.90;;;;;;5113107;27;20236;-71
2022/09/09 02:52:08;;;;;;;4.33;2.13;;;13.50;99.90;;;;;;5114608;27;20232;-71
2022/09/09 02:54:37;;;;;;;2.43;1.83;;;13.60;99.90;;;;;;5115100;27;20285;-71
2022/09/09 02:57:11;;;;;;;3.07;1.77;;;13.70;99.90;;;;;;5098616;27;20203;-71
2022/09/09 02:59:40;;;;;;;3.03;1.87;;;13.70;99.90;;;;;;5107959;28;20223;-71
2022/09/09 03:02:07;;;;;;;3.33;1.90;;;13.80;99.90;;;;;;5114318;27;20679;-71
2022/09/09 03:04:34;;;;;;;2.77;1.70;;;13.90;99.90;;;;;;5123835;27;20279;-71
2022/09/09 03:07:03;;;;;;;4.53;1.90;;;14.10;99.90;;;;;;5096089;27;20289;-71
2022/09/09 03:09:30;;;;;;;3.57;1.80;;;14.10;99.90;;;;;;5132429;27;20245;-72
2022/09/09 03:11:58;;;;;;;4.40;1.83;;;14.00;99.90;;;;;;5098484;27;20702;-73
2022/09/09 03:14:25;;;;;;;3.03;1.47;;;14.00;99.90;;;;;;5096694;28;20251;-72
2022/09/09 03:16:54;;;;;;;3.43;1.43;;;14.00;99.90;;;;;;5100735;28;20249;-72
2022/09/09 03:19:21;;;;;;;5.13;2.13;;;14.10;99.90;;;;;;5112369;27;20227;-72
2022/09/09 03:21:49;;;;;;;6.00;2.00;;;14.20;99.90;;;;;;5119983;27;20311;-73
2022/09/09 03:24:16;;;;;;;3.33;1.50;;;14.30;99.90;;;;;;5117614;27;20236;-72
2022/09/09 03:26:45;;;;;;;2.03;1.40;;;14.40;99.90;;;;;;5096222;28;20268;-72
2022/09/09 03:29:13;;;;;;;2.80;2.10;;;14.50;99.90;;;;;;5118974;27;20208;-72
2022/09/09 03:31:40;;;;;;;4.80;1.40;;;14.60;99.90;;;;;;5100078;28;20200;-72
2022/09/09 03:34:08;;;;;;;3.73;1.50;;;14.90;99.90;;;;;;5117539;27;20279;-73
2022/09/09 03:36:35;;;;;;;3.03;1.80;;;15.00;99.90;;;;;;5126444;27;20232;-72
2022/09/09 03:39:03;;;;;;;2.60;1.47;;;15.20;99.90;;;;;;5119477;27;20257;-72
2022/09/09 03:41:30;;;;;;;3.50;1.50;;;15.20;99.90;;;;;;5111250;28;20620;-72
2022/09/09 03:43:57;;;;;;;3.53;1.50;;;15.10;99.90;;;;;;5117819;28;20280;-72
2022/09/09 03:46:26;;;;;;;5.20;1.73;;;15.10;99.90;;;;;;5114479;28;20625;-72
2022/09/09 03:48:53;;;;;;;3.45;1.45;;;15.10;99.90;;;;;;5116675;28;20233;-72
2022/09/09 03:51:22;;;;;;;4.20;1.70;;;15.00;99.90;;;;;;5100324;28;20220;-73
2022/09/09 03:53:49;;;;;;;1.53;1.10;;;15.00;99.90;;;;;;5111916;28;20212;-72
2022/09/09 03:56:21;;;;;;;4.10;1.70;;;15.10;99.90;;;;;;5111978;28;20244;-72
2022/09/09 03:58:54;;;;;;;2.55;1.48;;;15.10;99.90;;;;;;5110388;28;20547;-72
2022/09/09 04:01:21;;;;;;;5.18;1.95;;;15.00;99.90;;;;;;5111343;28;20201;-72
2022/09/09 04:03:48;;;;;;;4.07;1.55;;;15.10;99.90;;;;;;5111618;28;20352;-72
2022/09/09 04:06:16;;;;;;;1.65;1.27;;;15.00;99.90;;;;;;5122166;28;20797;-73
2022/09/09 04:08:48;;;;;;;2.22;1.45;;;15.20;99.90;;;;;;5117484;27;20208;-72
2022/09/09 04:11:15;;;;;;;2.33;1.40;;;15.20;99.90;;;;;;5112210;28;20678;-72
2022/09/09 04:13:44;;;;;;;1.93;1.03;;;15.20;99.90;;;;;;5117545;28;20197;-73
2022/09/09 04:16:12;;;;;;;5.57;1.73;;;15.30;99.90;;;;;;5118216;28;20206;-72
2022/09/09 04:18:40;;;;;;;5.05;1.67;;;15.30;99.90;;;;;;5131864;28;20226;-72
2022/09/09 04:21:07;;;;;;;4.35;1.83;;;15.30;99.90;;;;;;5129972;28;20224;-73
2022/09/09 04:23:35;;;;;;;4.32;1.90;;;15.30;99.90;;;;;;5131845;28;20224;-72
2022/09/09 04:26:05;;;;;;;4.00;1.40;;;15.40;99.90;;;;;;5127581;28;20666;-72
2022/09/09 04:28:35;;;;;;;4.45;1.70;;;15.40;99.90;;;;;;5111840;28;20236;-72
2022/09/09 04:31:06;;;;;;;4.90;1.65;;;15.40;99.90;;;;;;5130376;27;20196;-73
2022/09/09 04:33:33;;;;;;;5.22;1.60;;;15.50;99.90;;;;;;5130387;28;20283;-72
2022/09/09 04:36:00;;;;;;;1.95;1.65;;;15.40;99.90;;;;;;5111406;28;20595;-72
2022/09/09 04:38:27;;;;;;;5.30;2.63;;;15.40;99.90;;;;;;5113537;28;20236;-72
2022/09/09 04:40:54;;;;;;;12.30;7.75;;;15.30;99.90;;;;;;5131893;27;20203;-71
2022/09/09 04:43:22;;;;;;;9.10;4.07;;;15.30;99.90;;;;;;5129651;27;20681;-70
2022/09/09 04:45:50;;;;;;;3.88;1.60;;;15.20;99.90;;;;;;5111544;28;20632;-71
2022/09/09 04:48:18;;;;;;;2.17;1.52;;;15.20;99.90;;;;;;5123450;27;20283;-70
2022/09/09 04:50:46;;;;;;;6.22;1.80;;;15.20;99.90;;;;;;5133987;27;20236;-71
2022/09/09 04:53:12;;;;;;;4.77;1.70;;;15.20;99.90;;;;;;5122965;27;20207;-71
2022/09/09 04:55:39;;;;;;;7.65;3.00;;;15.10;99.90;;;;;;5131858;27;20677;-71
2022/09/09 04:58:08;;;;;;;10.67;6.30;;;15.20;99.90;;;;;;5135647;27;20235;-70
2022/09/09 05:00:37;;;;;;;2.83;1.90;;;15.10;99.90;;;;;;5121364;27;20200;-71
2022/09/09 05:03:05;;;;;;;2.72;1.70;;;15.10;99.90;;;;;;5106269;27;20256;-70
2022/09/09 05:05:34;;;;;;;3.80;1.63;;;15.10;99.90;;;;;;5103719;27;20296;-71
2022/09/09 05:08:03;;;;;;;4.10;1.48;;;15.10;99.90;;;;;;5114327;27;20606;-71
2022/09/09 05:10:30;;;;;;;4.95;1.88;;;15.10;99.90;;;;;;5114279;27;20201;-72
2022/09/09 05:12:57;;;;;;;2.22;1.90;;;15.20;99.90;;;;;;5111012;27;20267;-72
2022/09/09 05:15:25;;;;;;;4.18;1.65;;;15.20;99.90;;;;;;5112170;27;20557;-72
2022/09/09 05:17:53;;;;;;;3.72;1.98;;;15.30;99.90;;;;;;5114252;27;20212;-72
2022/09/09 05:20:21;;;;;;;2.97;1.90;;;15.30;99.90;;;;;;5108141;28;20201;-72
2022/09/09 05:22:48;;;;;;;4.88;2.05;;;15.20;99.90;;;;;;5101654;27;20555;-72
2022/09/09 05:25:15;;;;;;;3.40;2.03;;;15.20;99.90;;;;;;5112180;28;20236;-72
2022/09/09 05:27:42;;;;;;;7.43;2.65;;;15.30;99.90;;;;;;5110353;27;20237;-71
2022/09/09 05:30:10;;;;;;;4.57;2.80;;;15.20;99.90;;;;;;5108339;27;20993;-72
2022/09/09 05:32:37;;;;;;;4.50;2.17;;;15.20;99.90;;;;;;5106737;27;20285;-71
2022/09/09 05:35:07;;;;;;;4.78;2.80;;;15.20;99.90;;;;;;5109636;27;20197;-72
2022/09/09 05:37:34;;;;;;;5.65;2.80;;;15.30;99.90;;;;;;5106822;27;20887;-72
2022/09/09 05:40:03;;;;;;;5.90;2.17;;;15.30;99.90;;;;;;5107943;27;20193;-72
2022/09/09 05:42:32;;;;;;;2.83;2.20;;;15.40;99.90;;;;;;5111149;27;20734;-72
2022/09/09 05:44:59;;;;;;;4.90;2.22;;;15.40;99.90;;;;;;5102600;28;20209;-72
2022/09/09 05:47:27;;;;;;;4.13;2.20;;;15.40;99.90;;;;;;5118019;27;20198;-72
2022/09/09 05:49:55;;;;;;;3.13;1.95;;;15.40;99.90;;;;;;5112324;27;20196;-72
2022/09/09 05:52:26;;;;;;;5.40;2.03;;;15.60;99.90;;;;;;5105943;28;20561;-71
2022/09/09 05:54:54;;;;;;;2.08;1.75;;;15.60;99.90;;;;;;5099679;28;20206;-72
2022/09/09 05:57:21;;;;;;;7.90;4.55;;;15.70;99.90;;;;;;5106430;27;20212;-72
2022/09/09 05:59:48;;;;;;;3.85;2.05;;;15.80;99.90;;;;;;5105233;27;20667;-72
2022/09/09 06:02:15;;;;;;;3.00;2.00;;;15.80;99.90;;;;;;5108143;27;20633;-72
2022/09/09 06:04:41;;;;;;;3.30;1.98;;;15.90;99.90;;;;;;5111781;27;20288;-72
2022/09/09 06:07:08;;;;;;;3.38;1.88;;;16.00;99.90;;;;;;5105900;27;20198;-72
2022/09/09 06:09:37;;;;;;;3.28;1.90;;;16.00;99.90;;;;;;5109880;27;20280;-72
2022/09/09 06:12:05;;;;;;;2.72;1.92;;;16.00;99.90;;;;;;5110369;27;20235;-71
2022/09/09 06:14:32;;;;;;;3.10;2.08;;;16.00;99.90;;;;;;5120392;27;20224;-72
2022/09/09 06:16:59;;;;;;;4.45;2.20;;;16.10;99.90;;;;;;5110168;27;20660;-72
2022/09/09 06:19:26;;;;;;;3.60;2.08;;;16.10;99.90;;;;;;5105432;28;20292;-72
2022/09/09 06:21:54;;;;;;;4.38;2.08;;;16.20;99.90;;;;;;5105766;27;20205;-72
2022/09/09 06:24:22;;;;;;;2.58;1.92;;;16.30;99.90;;;;;;5107624;28;20584;-72
2022/09/09 06:26:51;;;;;;;3.92;1.92;;;16.40;99.90;;;;;;5104773;27;20198;-72
2022/09/09 06:29:18;;;;;;;4.32;2.00;;;16.70;99.90;;;;;;5105757;27;20581;-72
2022/09/09 06:31:47;;;;;;;3.05;1.73;;;17.00;99.90;;;;;;5107762;28;20197;-72
2022/09/09 06:34:14;;;;;;;5.57;3.38;;;17.00;99.90;;;;;;5108336;27;20221;-72
2022/09/09 06:36:41;;;;;;;5.03;3.30;;;17.00;99.90;;;;;;5102115;28;20248;-72
2022/09/09 06:39:10;;;;;;;4.72;3.38;;;17.00;99.90;;;;;;5107708;27;20209;-72
2022/09/09 06:41:38;;;;;;;5.80;3.28;;;17.10;99.90;;;;;;5103487;28;20223;-72
2022/09/09 06:44:06;;;;;;;5.30;2.20;;;17.30;99.90;;;;;;5097488;27;20630;-72
2022/09/09 06:46:35;;;;;;;3.13;2.05;;;17.30;99.90;;;;;;5104473;28;20201;-72
2022/09/09 06:49:03;;;;;;;4.95;2.35;;;17.40;99.90;;;;;;5110313;27;20685;-71
2022/09/09 06:51:31;;;;;;;3.55;1.98;;;17.40;99.90;;;;;;5106124;28;20193;-72
2022/09/09 06:54:01;;;;;;;5.85;2.15;;;17.40;99.90;;;;;;5103603;28;20237;-72
2022/09/09 06:56:30;;;;;;;4.45;1.70;;;17.40;99.90;;;;;;5108370;27;20227;-72
2022/09/09 06:59:03;;;;;;;4.15;1.48;;;17.40;99.90;;;;;;5107620;28;20351;-72
2022/09/09 07:01:33;;;;;;;4.75;2.08;;;17.50;99.90;;;;;;5109046;28;20208;-72
2022/09/09 07:04:01;;;;;;;2.95;1.40;;;17.60;99.90;;;;;;5100189;28;20311;-72
2022/09/09 07:06:30;;;;;;;6.18;1.50;;;17.70;99.90;;;;;;5106164;28;20564;-72
2022/09/09 07:08:59;;;;;;;1.90;1.48;;;17.70;99.90;;;;;;5110636;28;20201;-71
2022/09/09 07:11:27;;;;;;;2.97;1.50;;;17.70;99.90;;;;;;5101579;28;20259;-71
2022/09/09 07:13:55;;;;;;;3.38;1.80;;;17.70;99.90;;;;;;5101230;27;20233;-71
2022/09/09 07:16:24;;;;;;;7.03;1.45;;;17.60;99.90;;;;;;5107296;27;20285;-71
2022/09/09 07:18:56;;;;;;;4.63;1.63;;;17.60;99.90;;;;;;5101862;28;20205;-71
2022/09/09 07:21:26;;;;;;;4.80;1.52;;;17.60;99.90;;;;;;5102945;28;20201;-71
2022/09/09 07:23:53;;;;;;;4.22;1.40;;;17.60;99.90;;;;;;5101275;27;20217;-71
2022/09/09 07:26:22;;;;;;;3.10;1.70;;;17.70;99.90;;;;;;5099895;28;20256;-71
2022/09/09 07:28:49;;;;;;;2.85;1.60;;;17.70;99.90;;;;;;5101945;28;20197;-71
2022/09/09 07:31:20;;;;;;;3.05;1.80;;;17.60;99.90;;;;;;5095220;28;20284;-71
2022/09/09 07:33:47;;;;;;;3.78;1.58;;;17.70;99.90;;;;;;5118094;27;20201;-71
2022/09/09 07:36:17;;;;;;;3.22;1.35;;;17.70;99.90;;;;;;5102032;28;20254;-71
2022/09/09 07:38:45;;;;;;;2.85;1.65;;;17.70;99.90;;;;;;5110852;28;20203;-71
2022/09/09 07:41:15;;;;;;;4.78;1.95;;;17.90;99.90;;;;;;5099219;28;20246;-71
2022/09/09 07:43:43;;;;;;;3.35;1.38;;;17.80;99.90;;;;;;5111419;28;20248;-71
2022/09/09 07:46:11;;;;;;;6.32;1.58;;;17.90;99.90;;;;;;5097824;28;20235;-71
2022/09/09 07:48:39;;;;;;;4.53;2.70;;;17.90;99.90;;;;;;5099678;28;20205;-71
2022/09/09 07:51:10;;;;;;;4.65;2.25;;;17.90;99.90;;;;;;5104559;28;20232;-71
2022/09/09 07:53:39;;;;;;;3.72;2.45;;;18.00;99.90;;;;;;5102460;28;20205;-72
2022/09/09 07:56:09;;;;;;;4.25;1.95;;;18.00;99.90;;;;;;5106616;28;20229;-71
2022/09/09 07:58:36;;;;;;;3.85;1.20;;;18.20;99.90;;;;;;5105783;28;20205;-71
2022/09/09 08:01:09;;;;;;;5.07;1.63;;;18.20;99.90;;;;;;5106828;28;20716;-71
2022/09/09 08:03:36;;;;;;;6.30;1.60;;;18.20;99.90;;;;;;5097302;28;20223;-72
2022/09/09 08:06:06;;;;;;;4.07;1.45;;;18.20;99.90;;;;;;5102281;28;20221;-73
2022/09/09 08:08:33;;;;;;;2.80;1.58;;;18.10;99.90;;;;;;5103143;28;20240;-73
2022/09/09 08:11:07;;;;;;;4.43;1.85;;;18.10;99.90;;;;;;5106629;28;20616;-73
2022/09/09 08:13:34;;;;;;;4.63;1.70;;;18.20;99.90;;;;;;5095259;28;20201;-73
2022/09/09 08:16:10;;;;;;;3.13;1.60;;;18.20;99.90;;;;;;5103837;28;20200;-73
2022/09/09 08:18:37;;;;;;;3.83;1.58;;;18.30;99.90;;;;;;5103933;28;20232;-72
2022/09/09 08:21:12;;;;;;;1.92;1.60;;;18.30;99.90;;;;;;5102602;28;20694;-72
2022/09/09 08:23:41;;;;;;;6.47;1.85;;;18.40;99.90;;;;;;5105107;28;20240;-73
2022/09/09 08:26:13;;;;;;;5.25;1.73;;;18.40;99.90;;;;;;5108368;27;20228;-72
2022/09/09 08:28:40;;;;;;;2.40;1.48;;;18.60;99.90;;;;;;5103667;28;20617;-72
2022/09/09 08:31:10;;;;;;;5.65;1.75;;;18.70;99.90;;;;;;5110987;27;20196;-73
2022/09/09 08:33:38;;;;;;;3.03;1.30;;;18.70;99.90;;;;;;5108844;28;20557;-72
2022/09/09 08:36:06;;;;;;;4.60;1.70;;;18.90;99.90;;;;;;5108770;27;20197;-72
2022/09/09 08:38:34;;;;;;;4.80;1.70;;;18.90;99.90;;;;;;5114891;27;20659;-72
2022/09/09 08:41:26;;;;;;;4.80;1.42;;;18.90;99.90;;;;;;5105877;27;20721;-72
2022/09/09 08:44:03;;;;;;;2.67;1.38;;;18.80;99.90;;;;;;5102595;28;20576;-72
2022/09/09 08:46:36;;;;;;;5.68;1.65;;;18.90;99.90;;;;;;5102903;27;20536;-72
2022/09/09 08:49:13;;;;;;;3.35;1.38;;;19.00;99.90;;;;;;5104415;27;20200;-72
2022/09/09 08:51:40;;;;;;;2.50;1.17;;;19.10;99.90;;;;;;5091099;28;20231;-72
2022/09/09 08:54:08;;;;;;;2.50;1.17;;;19.30;99.90;;;;;;5105877;27;20247;-72
2022/09/09 08:56:37;;;;;;;2.47;1.40;;;19.40;99.90;;;;;;5110656;28;20202;-72
2022/09/09 08:59:05;;;;;;;4.88;1.40;;;19.60;99.90;;;;;;5100420;27;20201;-72
2022/09/09 09:01:43;;;;;;;3.60;1.63;;;19.70;99.90;;;;;;5100920;27;20567;-72
2022/09/09 09:04:25;;;;;;;3.03;1.67;;;19.60;99.90;;;;;;5105592;27;20229;-72
2022/09/09 09:07:04;;;;;;;4.60;1.23;;;19.80;99.90;;;;;;5101055;28;20606;-72
2022/09/09 09:09:39;;;;;;;3.88;1.15;;;19.80;99.90;;;;;;5116673;27;20201;-72
2022/09/09 09:12:17;;;;;;;4.78;1.60;;;19.80;99.90;;;;;;5103511;28;20616;-72
2022/09/09 09:14:46;;;;;;;3.03;1.38;;;19.70;99.90;;;;;;5111810;27;20204;-72
2022/09/09 09:17:16;;;;;;;2.63;1.45;;;19.60;99.90;;;;;;5097178;27;20229;-72
2022/09/09 09:19:46;;;;;;;3.60;1.45;;;19.70;99.90;;;;;;5106457;28;20616;-72
2022/09/09 09:22:19;;;;;;;5.40;1.45;;;19.70;99.90;;;;;;5100083;27;20275;-72
2022/09/09 09:24:52;;;;;;;5.65;2.00;;;19.80;99.90;;;;;;5106324;28;20297;-72
2022/09/09 09:27:31;;;;;;;2.42;1.38;;;19.80;99.90;;;;;;5104267;27;20611;-72
2022/09/09 09:30:00;;;;;;;2.55;1.63;;;19.80;99.90;;;;;;5102030;27;20197;-72
2022/09/09 09:32:31;;;;;;;5.47;1.90;;;20.40;99.90;;;;;;5104162;27;20202;-72
2022/09/09 09:35:00;;;;;;;3.45;1.17;;;20.80;99.90;;;;;;5106278;28;20288;-72
2022/09/09 09:37:32;;;;;;;2.22;1.48;;;20.90;99.90;;;;;;5098322;28;20210;-72
2022/09/09 09:40:10;;;;;;;1.42;0.82;;;20.60;99.90;;;;;;5108353;27;20291;-72
2022/09/09 09:42:39;;;;;;;5.00;1.42;;;20.60;99.90;;;;;;5112003;27;20209;-72
2022/09/09 09:45:16;;;;;;;5.20;1.95;;;20.70;99.90;;;;;;5100786;28;20581;-72
2022/09/09 09:47:44;;;;;;;2.95;1.77;;;20.50;99.90;;;;;;5102206;27;20213;-72
2022/09/09 09:50:19;;;;;;;4.10;1.42;;;20.30;99.90;;;;;;5112943;27;20201;-72
2022/09/09 09:52:56;;;;;;;2.45;0.93;;;20.10;99.90;;;;;;5102881;28;20198;-72
2022/09/09 09:55:24;;;;;;;2.88;1.42;;;20.10;99.90;;;;;;5095407;28;20201;-72
2022/09/09 09:57:53;;;;;;;2.60;1.50;;;20.10;99.90;;;;;;5098475;28;20205;-71
2022/09/09 10:00:22;;;;;;;2.83;1.45;;;20.20;99.90;;;;;;5107128;27;20194;-72
2022/09/09 10:02:52;;;;;;;3.70;1.50;;;20.40;99.90;;;;;;5103564;27;20633;-72
2022/09/09 10:05:21;;;;;;;7.88;2.35;;;20.50;99.90;;;;;;5101939;27;20246;-72
2022/09/09 10:07:48;;;;;;;9.02;1.73;;;20.40;99.90;;;;;;5106021;27;20293;-72
2022/09/09 10:10:21;;;;;;;7.25;2.75;;;20.40;99.90;;;;;;5105745;27;20286;-71
2022/09/09 10:13:01;;;;;;;4.90;1.73;;;20.30;99.90;;;;;;5105727;28;20256;-71
2022/09/09 10:15:37;;;;;;;3.88;1.38;;;20.20;99.90;;;;;;5101864;27;20293;-72
2022/09/09 10:18:18;;;;;;;3.65;1.95;;;20.30;99.90;;;;;;5099314;28;20283;-71
2022/09/09 10:20:55;;;;;;;2.80;1.60;;;20.50;99.90;;;;;;5099984;27;20716;-72
2022/09/09 10:23:40;;;;;;;5.10;1.30;;;20.70;99.90;;;;;;5104250;28;20247;-71
2022/09/09 10:26:27;;;;;;;7.68;1.77;;;20.70;99.90;;;;;;5088096;28;20197;-71
2022/09/09 10:29:21;;;;;;;6.57;1.75;;;21.00;99.90;;;;;;5105997;28;20232;-72
2022/09/09 10:31:59;;;;;;;4.97;1.42;;;21.40;99.90;;;;;;5100999;28;20654;-72
2022/09/09 10:34:42;;;;;;;5.00;1.50;;;21.50;99.90;;;;;;5092193;27;20626;-71
2022/09/09 10:37:22;;;;;;;3.40;1.25;;;21.50;99.90;;;;;;5104517;27;20244;-71
2022/09/09 10:39:58;;;;;;;2.47;1.48;;;22.30;99.90;;;;;;5102542;28;20666;-71
2022/09/09 10:42:31;;;;;;;3.85;1.30;;;22.80;99.90;;;;;;5091309;27;20208;-72
2022/09/09 10:45:14;;;;;;;4.63;1.27;;;22.50;99.90;;;;;;5099265;28;20253;-71
2022/09/09 10:48:08;;;;;;;3.88;1.40;;;22.90;99.90;;;;;;5109292;27;20238;-71
2022/09/09 10:50:47;;;;;;;3.78;1.58;;;23.20;99.90;;;;;;5097621;28;20198;-71
2022/09/09 10:53:21;;;;;;;5.88;1.60;;;22.90;99.90;;;;;;5085567;28;20202;-71
2022/09/09 10:55:54;;;;;;;2.95;2.05;;;22.60;99.90;;;;;;5112641;27;20227;-71
2022/09/09 10:58:27;;;;;;;3.83;2.13;;;22.30;99.90;;;;;;5100946;28;20543;-71
2022/09/09 11:01:02;;;;;;;4.10;1.52;;;22.20;99.90;;;;;;5099726;28;20200;-72
2022/09/09 11:03:30;;;;;;;3.03;0.90;;;22.00;99.90;;;;;;5086650;28;20296;-71
2022/09/09 11:06:00;;;;;;;2.28;0.85;;;21.80;99.90;;;;;;5103701;27;20229;-72
2022/09/09 11:08:29;;;;;;;4.25;1.42;;;21.70;99.90;;;;;;5101674;28;20225;-71
2022/09/09 11:11:03;;;;;;;3.83;1.20;;;21.50;99.90;;;;;;5107457;28;20193;-71
2022/09/09 11:13:40;;;;;;;4.50;1.38;;;21.50;99.90;;;;;;5101771;27;20892;-72
2022/09/09 11:16:23;;;;;;;3.92;1.00;;;21.40;99.90;;;;;;5092614;28;20223;-70
2022/09/09 11:18:50;;;;;;;4.85;1.27;;;21.20;99.90;;;;;;5102074;28;20201;-70
2022/09/09 11:21:22;;;;;;;4.50;1.00;;;21.10;99.90;;;;;;5100799;28;20197;-70
2022/09/09 11:23:54;;;;;;;3.47;1.30;;;21.00;99.90;;;;;;5097766;28;20205;-70
2022/09/09 11:26:29;;;;;;;3.90;1.30;;;21.00;99.90;;;;;;5099487;28;20200;-70
2022/09/09 11:29:09;;;;;;;2.78;1.33;;;21.00;99.90;;;;;;5106968;27;20212;-70
2022/09/09 11:31:47;;;;;;;2.00;0.98;;;21.10;99.90;;;;;;5095625;28;20684;-70
2022/09/09 11:34:28;;;;;;;3.63;1.15;;;21.00;99.90;;;;;;5104782;27;20196;-70
2022/09/09 11:37:18;;;;;;;3.38;1.10;;;21.00;99.90;;;;;;5104052;28;20754;-70
2022/09/09 11:40:01;;;;;;;2.88;0.93;;;21.10;99.90;;;;;;5106650;28;20205;-70
2022/09/09 11:42:27;;;;;;;3.33;1.02;;;20.90;99.90;;;;;;5102132;28;20209;-70
2022/09/09 11:44:56;;;;;;;1.80;1.10;;;20.40;99.90;;;;;;5099579;28;20221;-70
2022/09/09 11:47:30;;;;;;;3.88;1.83;;;19.90;99.90;;;;;;5108765;28;20628;-70
2022/09/09 11:50:08;;;;;;;4.55;1.52;;;19.60;99.90;;;;;;5108085;28;20283;-70
2022/09/09 11:52:38;;;;;;;3.03;1.42;;;19.20;99.90;;;;;;5114424;28;20197;-70
2022/09/09 11:55:11;;;;;;;5.30;2.05;;;18.90;99.90;;;;;;5100543;28;20189;-70
2022/09/09 11:57:39;;;;;;;5.43;3.92;;;19.00;99.90;;;;;;5111030;27;20687;-70
2022/09/09 12:00:08;;;;;;;4.40;3.00;;;18.90;99.90;;;;;;5106651;28;20205;-70
2022/09/09 12:02:36;;;;;;;2.25;1.30;;;19.00;99.90;;;;;;5112651;27;20292;-70
2022/09/09 12:05:08;;;;;;;4.13;1.35;;;19.10;99.90;;;;;;5101707;28;20703;-70
2022/09/09 12:07:39;;;;;;;2.45;0.80;;;19.00;99.90;;;;;;5108684;27;20662;-70
2022/09/09 12:10:24;;;;;;;2.13;1.00;;;19.00;99.90;;;;;;5109862;27;20201;-70
2022/09/09 12:12:51;;;;;;;2.67;1.65;;;19.00;99.90;;;;;;5104100;28;20302;-70
2022/09/09 12:15:22;;;;;;;3.05;0.93;;;19.00;99.90;;;;;;5104451;27;20193;-70
2022/09/09 12:17:53;;;;;;;3.03;0.98;;;19.10;99.90;;;;;;5103196;27;20198;-70
2022/09/09 12:20:23;;;;;;;1.77;0.65;;;19.20;99.90;;;;;;5102426;27;20201;-70
2022/09/09 12:23:08;;;;;;;1.23;0.60;;;19.30;99.90;;;;;;5101395;28;20198;-70
2022/09/09 12:26:01;;;;;;;2.45;0.98;;;19.20;99.90;;;;;;5108535;27;20217;-70
2022/09/09 12:28:41;;;;;;;2.95;0.98;;;19.30;99.90;;;;;;5110327;27;20209;-70
2022/09/09 12:31:17;;;;;;;3.47;0.90;;;19.00;99.90;;;;;;5105963;28;20279;-70
2022/09/09 12:33:47;;;;;;;1.67;0.68;;;19.30;99.90;;;;;;5110015;28;20208;-70
2022/09/09 12:36:17;;;;;;;1.23;0.73;;;19.30;99.90;;;;;;5102082;27;20647;-70
2022/09/09 12:38:45;;;;;;;2.00;0.82;;;19.10;99.90;;;;;;5107072;28;20254;-70
2022/09/09 12:41:21;;;;;;;1.75;0.60;;;19.10;99.90;;;;;;5105656;28;20196;-70
2022/09/09 12:43:49;;;;;;;1.48;0.90;;;19.10;99.90;;;;;;5107338;28;20192;-70
2022/09/09 12:46:27;;;;;;;5.38;1.38;;;19.10;99.90;;;;;;5105811;28;20257;-70
2022/09/09 12:48:55;;;;;;;1.58;1.20;;;19.10;99.90;;;;;;5099892;28;20200;-70
2022/09/09 12:51:27;;;;;;;3.25;1.20;;;19.00;99.90;;;;;;5109943;27;20576;-71
2022/09/09 12:53:54;;;;;;;1.38;0.75;;;19.10;99.90;;;;;;5103348;27;20202;-71
2022/09/09 12:56:23;;;;;;;1.80;0.95;;;18.90;99.90;;;;;;5111056;27;20547;-71
2022/09/09 12:58:52;;;;;;;2.45;0.95;;;18.90;99.90;;;;;;5109195;27;20204;-70
2022/09/09 13:01:23;;;;;;;3.83;1.17;;;18.90;99.90;;;;;;5102420;28;20205;-70
2022/09/09 13:03:50;;;;;;;1.83;1.00;;;18.80;99.90;;;;;;5102985;28;20232;-70
2022/09/09 13:06:23;;;;;;;1.45;0.77;;;18.90;99.90;;;;;;5110199;28;20213;-71
2022/09/09 13:08:51;;;;;;;5.07;1.33;;;18.90;99.90;;;;;;5101454;28;20209;-71